Senneville, Canada
Current Conditions -  °F | °C
As of 1:00 AM on Thursday 29 Jan 2015 (Local Time) from CYUL Reporting Station
Clear Clear  
Wind Chill: -3°   Ceiling: Unl
Heat Index:   Visibility: 15mi
Dew Point: -6°   Wind: 7mph
Humidity: 52%   Direction: 230°SW
Pressure: 30.3"   Gusts: NA
Location:  45.43°N, 73.97°W
Report Text: CYUL 290600Z 23006KT 15SM SKC M13/M21 A3030 RMK SLP265
Loading
Personal Weather Stations






























Interactive Weather Map New forecast layout! Learn more

10-Day Weather Forecast

Advertisements
Track Severe Weather on mobile